sensor_id;sensor_type;location;lat;lon;timestamp;P1;durP1;ratioP1;P2;durP2;ratioP2
37907;SDS011;23740;51.550;6.846;2023-07-16T00:01:20;1.67;;;1.58;;
37907;SDS011;23740;51.550;6.846;2023-07-16T00:03:47;2.60;;;1.30;;
37907;SDS011;23740;51.550;6.846;2023-07-16T00:06:15;1.63;;;1.48;;
37907;SDS011;23740;51.550;6.846;2023-07-16T00:08:43;1.85;;;1.20;;
37907;SDS011;23740;51.550;6.846;2023-07-16T00:11:12;2.03;;;1.60;;
37907;SDS011;23740;51.550;6.846;2023-07-16T00:13:40;1.85;;;1.30;;
37907;SDS011;23740;51.550;6.846;2023-07-16T00:16:12;2.28;;;1.55;;
37907;SDS011;23740;51.550;6.846;2023-07-16T00:18:41;2.60;;;1.63;;
37907;SDS011;23740;51.550;6.846;2023-07-16T00:21:08;2.42;;;1.42;;
37907;SDS011;23740;51.550;6.846;2023-07-16T00:23:36;4.20;;;1.67;;
37907;SDS011;23740;51.550;6.846;2023-07-16T00:26:04;3.25;;;1.50;;
37907;SDS011;23740;51.550;6.846;2023-07-16T00:28:33;2.83;;;1.52;;
37907;SDS011;23740;51.550;6.846;2023-07-16T00:31:01;2.60;;;1.80;;
37907;SDS011;23740;51.550;6.846;2023-07-16T00:33:29;1.92;;;1.60;;
37907;SDS011;23740;51.550;6.846;2023-07-16T00:35:57;3.67;;;1.73;;
37907;SDS011;23740;51.550;6.846;2023-07-16T00:38:25;2.95;;;1.80;;
37907;SDS011;23740;51.550;6.846;2023-07-16T00:40:52;2.80;;;1.77;;
37907;SDS011;23740;51.550;6.846;2023-07-16T00:43:20;2.92;;;1.83;;
37907;SDS011;23740;51.550;6.846;2023-07-16T00:45:49;3.38;;;2.20;;
37907;SDS011;23740;51.550;6.846;2023-07-16T00:48:17;3.58;;;2.30;;
37907;SDS011;23740;51.550;6.846;2023-07-16T00:50:46;4.60;;;2.15;;
37907;SDS011;23740;51.550;6.846;2023-07-16T00:53:14;4.43;;;2.20;;
37907;SDS011;23740;51.550;6.846;2023-07-16T00:55:41;3.28;;;2.05;;
37907;SDS011;23740;51.550;6.846;2023-07-16T00:58:09;4.70;;;2.60;;
37907;SDS011;23740;51.550;6.846;2023-07-16T01:00:38;6.20;;;2.75;;
37907;SDS011;23740;51.550;6.846;2023-07-16T01:03:08;4.07;;;2.10;;
37907;SDS011;23740;51.550;6.846;2023-07-16T01:05:38;3.13;;;2.38;;
37907;SDS011;23740;51.550;6.846;2023-07-16T01:08:12;2.85;;;1.88;;
37907;SDS011;23740;51.550;6.846;2023-07-16T01:10:40;4.55;;;2.15;;
37907;SDS011;23740;51.550;6.846;2023-07-16T01:13:09;4.32;;;3.22;;
37907;SDS011;23740;51.550;6.846;2023-07-16T01:15:37;3.92;;;2.20;;
37907;SDS011;23740;51.550;6.846;2023-07-16T01:18:04;2.80;;;2.20;;
37907;SDS011;23740;51.550;6.846;2023-07-16T01:20:34;3.40;;;1.90;;
37907;SDS011;23740;51.550;6.846;2023-07-16T01:23:11;2.63;;;1.50;;
37907;SDS011;23740;51.550;6.846;2023-07-16T01:25:55;2.95;;;1.60;;
37907;SDS011;23740;51.550;6.846;2023-07-16T01:28:45;3.10;;;1.63;;
37907;SDS011;23740;51.550;6.846;2023-07-16T01:31:36;3.60;;;1.80;;
37907;SDS011;23740;51.550;6.846;2023-07-16T01:34:04;2.33;;;1.50;;
37907;SDS011;23740;51.550;6.846;2023-07-16T01:36:32;2.30;;;2.10;;
37907;SDS011;23740;51.550;6.846;2023-07-16T01:39:01;3.92;;;1.52;;
37907;SDS011;23740;51.550;6.846;2023-07-16T01:41:28;2.70;;;1.70;;
37907;SDS011;23740;51.550;6.846;2023-07-16T01:43:56;2.72;;;1.70;;
37907;SDS011;23740;51.550;6.846;2023-07-16T01:46:25;3.40;;;1.63;;
37907;SDS011;23740;51.550;6.846;2023-07-16T01:48:54;2.58;;;1.95;;
37907;SDS011;23740;51.550;6.846;2023-07-16T01:51:22;2.80;;;1.90;;
37907;SDS011;23740;51.550;6.846;2023-07-16T01:53:50;2.75;;;1.88;;
37907;SDS011;23740;51.550;6.846;2023-07-16T01:56:18;1.85;;;1.52;;
37907;SDS011;23740;51.550;6.846;2023-07-16T01:58:45;3.28;;;2.28;;
37907;SDS011;23740;51.550;6.846;2023-07-16T02:01:13;2.95;;;2.03;;
37907;SDS011;23740;51.550;6.846;2023-07-16T02:03:41;5.43;;;2.30;;
37907;SDS011;23740;51.550;6.846;2023-07-16T02:06:10;2.97;;;1.77;;
37907;SDS011;23740;51.550;6.846;2023-07-16T02:08:39;2.50;;;2.00;;
37907;SDS011;23740;51.550;6.846;2023-07-16T02:11:07;3.20;;;1.60;;
37907;SDS011;23740;51.550;6.846;2023-07-16T02:13:35;3.17;;;2.03;;
37907;SDS011;23740;51.550;6.846;2023-07-16T02:16:03;4.07;;;1.98;;
37907;SDS011;23740;51.550;6.846;2023-07-16T02:18:31;2.53;;;1.77;;
37907;SDS011;23740;51.550;6.846;2023-07-16T02:20:59;3.22;;;2.05;;
37907;SDS011;23740;51.550;6.846;2023-07-16T02:23:29;3.50;;;1.95;;
37907;SDS011;23740;51.550;6.846;2023-07-16T02:25:57;4.75;;;1.77;;
37907;SDS011;23740;51.550;6.846;2023-07-16T02:28:25;3.40;;;2.50;;
37907;SDS011;23740;51.550;6.846;2023-07-16T02:30:53;2.63;;;2.17;;
37907;SDS011;23740;51.550;6.846;2023-07-16T02:33:20;3.35;;;1.80;;
37907;SDS011;23740;51.550;6.846;2023-07-16T02:35:49;3.53;;;1.77;;
37907;SDS011;23740;51.550;6.846;2023-07-16T02:38:18;2.30;;;1.83;;
37907;SDS011;23740;51.550;6.846;2023-07-16T02:40:47;2.13;;;1.58;;
37907;SDS011;23740;51.550;6.846;2023-07-16T02:43:15;2.15;;;1.60;;
37907;SDS011;23740;51.550;6.846;2023-07-16T02:45:43;3.33;;;2.13;;
37907;SDS011;23740;51.550;6.846;2023-07-16T02:48:11;2.95;;;1.85;;
37907;SDS011;23740;51.550;6.846;2023-07-16T02:50:38;3.90;;;1.90;;
37907;SDS011;23740;51.550;6.846;2023-07-16T02:53:06;2.65;;;1.90;;
37907;SDS011;23740;51.550;6.846;2023-07-16T02:55:35;3.03;;;1.90;;
37907;SDS011;23740;51.550;6.846;2023-07-16T02:58:04;4.30;;;1.80;;
37907;SDS011;23740;51.550;6.846;2023-07-16T03:00:32;2.47;;;1.73;;
37907;SDS011;23740;51.550;6.846;2023-07-16T03:03:00;3.25;;;1.48;;
37907;SDS011;23740;51.550;6.846;2023-07-16T03:05:28;2.90;;;1.77;;
37907;SDS011;23740;51.550;6.846;2023-07-16T03:07:56;4.88;;;1.77;;
37907;SDS011;23740;51.550;6.846;2023-07-16T03:10:24;2.30;;;1.88;;
37907;SDS011;23740;51.550;6.846;2023-07-16T03:12:53;3.83;;;1.70;;
37907;SDS011;23740;51.550;6.846;2023-07-16T03:15:22;2.13;;;1.52;;
37907;SDS011;23740;51.550;6.846;2023-07-16T03:17:50;3.03;;;1.88;;
37907;SDS011;23740;51.550;6.846;2023-07-16T03:20:18;3.42;;;1.77;;
37907;SDS011;23740;51.550;6.846;2023-07-16T03:22:45;4.03;;;2.00;;
37907;SDS011;23740;51.550;6.846;2023-07-16T03:25:13;3.92;;;1.50;;
37907;SDS011;23740;51.550;6.846;2023-07-16T03:27:41;4.68;;;2.28;;
37907;SDS011;23740;51.550;6.846;2023-07-16T03:30:09;4.78;;;1.73;;
37907;SDS011;23740;51.550;6.846;2023-07-16T03:32:38;3.88;;;1.70;;
37907;SDS011;23740;51.550;6.846;2023-07-16T03:35:18;2.85;;;1.77;;
37907;SDS011;23740;51.550;6.846;2023-07-16T03:37:49;2.97;;;1.63;;
37907;SDS011;23740;51.550;6.846;2023-07-16T03:40:17;2.15;;;1.80;;
37907;SDS011;23740;51.550;6.846;2023-07-16T03:42:49;5.47;;;2.58;;
37907;SDS011;23740;51.550;6.846;2023-07-16T03:45:17;3.53;;;1.33;;
37907;SDS011;23740;51.550;6.846;2023-07-16T03:47:46;2.10;;;1.63;;
37907;SDS011;23740;51.550;6.846;2023-07-16T03:50:14;1.80;;;1.40;;
37907;SDS011;23740;51.550;6.846;2023-07-16T03:52:43;3.20;;;1.65;;
37907;SDS011;23740;51.550;6.846;2023-07-16T03:55:11;2.25;;;1.60;;
37907;SDS011;23740;51.550;6.846;2023-07-16T03:57:38;3.20;;;1.90;;
37907;SDS011;23740;51.550;6.846;2023-07-16T04:00:06;3.67;;;1.40;;
37907;SDS011;23740;51.550;6.846;2023-07-16T04:02:37;2.75;;;1.80;;
37907;SDS011;23740;51.550;6.846;2023-07-16T04:05:07;2.15;;;1.08;;
37907;SDS011;23740;51.550;6.846;2023-07-16T04:07:35;3.42;;;1.45;;
37907;SDS011;23740;51.550;6.846;2023-07-16T04:10:03;3.33;;;1.70;;
37907;SDS011;23740;51.550;6.846;2023-07-16T04:12:32;2.42;;;1.60;;
37907;SDS011;23740;51.550;6.846;2023-07-16T04:14:59;2.20;;;1.50;;
37907;SDS011;23740;51.550;6.846;2023-07-16T04:17:27;3.05;;;1.70;;
37907;SDS011;23740;51.550;6.846;2023-07-16T04:19:55;2.08;;;1.60;;
37907;SDS011;23740;51.550;6.846;2023-07-16T04:22:24;4.85;;;1.58;;
37907;SDS011;23740;51.550;6.846;2023-07-16T04:24:52;3.88;;;1.65;;
37907;SDS011;23740;51.550;6.846;2023-07-16T04:27:20;2.58;;;1.75;;
37907;SDS011;23740;51.550;6.846;2023-07-16T04:29:47;3.08;;;1.63;;
37907;SDS011;23740;51.550;6.846;2023-07-16T04:32:15;4.35;;;1.73;;
37907;SDS011;23740;51.550;6.846;2023-07-16T04:34:43;4.95;;;1.98;;
37907;SDS011;23740;51.550;6.846;2023-07-16T04:37:11;5.03;;;2.28;;
37907;SDS011;23740;51.550;6.846;2023-07-16T04:39:40;2.30;;;1.63;;
37907;SDS011;23740;51.550;6.846;2023-07-16T04:42:08;4.93;;;2.25;;
37907;SDS011;23740;51.550;6.846;2023-07-16T04:44:35;2.25;;;1.83;;
37907;SDS011;23740;51.550;6.846;2023-07-16T04:47:03;2.83;;;1.63;;
37907;SDS011;23740;51.550;6.846;2023-07-16T04:49:35;2.95;;;1.75;;
37907;SDS011;23740;51.550;6.846;2023-07-16T04:52:03;6.00;;;2.13;;
37907;SDS011;23740;51.550;6.846;2023-07-16T04:54:34;3.58;;;1.60;;
37907;SDS011;23740;51.550;6.846;2023-07-16T04:57:05;2.60;;;1.52;;
37907;SDS011;23740;51.550;6.846;2023-07-16T04:59:34;4.47;;;2.00;;
37907;SDS011;23740;51.550;6.846;2023-07-16T05:02:02;2.67;;;2.05;;
37907;SDS011;23740;51.550;6.846;2023-07-16T05:04:32;3.38;;;1.88;;
37907;SDS011;23740;51.550;6.846;2023-07-16T05:07:00;3.78;;;1.90;;
37907;SDS011;23740;51.550;6.846;2023-07-16T05:09:28;5.15;;;1.73;;
37907;SDS011;23740;51.550;6.846;2023-07-16T05:11:56;4.15;;;2.13;;
37907;SDS011;23740;51.550;6.846;2023-07-16T05:14:27;2.63;;;1.42;;
37907;SDS011;23740;51.550;6.846;2023-07-16T05:16:55;3.28;;;1.73;;
37907;SDS011;23740;51.550;6.846;2023-07-16T05:19:23;4.43;;;2.28;;
37907;SDS011;23740;51.550;6.846;2023-07-16T05:21:51;4.15;;;2.22;;
37907;SDS011;23740;51.550;6.846;2023-07-16T05:24:19;3.92;;;1.77;;
37907;SDS011;23740;51.550;6.846;2023-07-16T05:26:47;2.90;;;2.20;;
37907;SDS011;23740;51.550;6.846;2023-07-16T05:29:16;4.72;;;1.98;;
37907;SDS011;23740;51.550;6.846;2023-07-16T05:31:45;4.93;;;1.70;;
37907;SDS011;23740;51.550;6.846;2023-07-16T05:34:13;4.53;;;1.50;;
37907;SDS011;23740;51.550;6.846;2023-07-16T05:36:41;6.32;;;1.67;;
37907;SDS011;23740;51.550;6.846;2023-07-16T05:39:10;4.80;;;1.52;;
37907;SDS011;23740;51.550;6.846;2023-07-16T05:41:39;3.22;;;1.63;;
37907;SDS011;23740;51.550;6.846;2023-07-16T05:44:07;2.65;;;1.42;;
37907;SDS011;23740;51.550;6.846;2023-07-16T05:46:35;3.17;;;1.80;;
37907;SDS011;23740;51.550;6.846;2023-07-16T05:49:04;3.33;;;1.65;;
37907;SDS011;23740;51.550;6.846;2023-07-16T05:51:32;3.08;;;1.80;;
37907;SDS011;23740;51.550;6.846;2023-07-16T05:54:00;2.40;;;1.48;;
37907;SDS011;23740;51.550;6.846;2023-07-16T05:56:28;3.90;;;1.98;;
37907;SDS011;23740;51.550;6.846;2023-07-16T05:58:56;3.00;;;1.77;;
37907;SDS011;23740;51.550;6.846;2023-07-16T06:01:24;5.05;;;1.80;;
37907;SDS011;23740;51.550;6.846;2023-07-16T06:03:52;5.55;;;1.95;;
37907;SDS011;23740;51.550;6.846;2023-07-16T06:06:21;3.55;;;1.85;;
37907;SDS011;23740;51.550;6.846;2023-07-16T06:08:49;5.45;;;2.05;;
37907;SDS011;23740;51.550;6.846;2023-07-16T06:11:16;5.93;;;2.10;;
37907;SDS011;23740;51.550;6.846;2023-07-16T06:13:44;5.07;;;2.15;;
37907;SDS011;23740;51.550;6.846;2023-07-16T06:16:12;4.57;;;2.35;;
37907;SDS011;23740;51.550;6.846;2023-07-16T06:18:40;2.28;;;1.48;;
37907;SDS011;23740;51.550;6.846;2023-07-16T06:21:08;4.50;;;2.10;;
37907;SDS011;23740;51.550;6.846;2023-07-16T06:23:37;5.00;;;2.58;;
37907;SDS011;23740;51.550;6.846;2023-07-16T06:26:05;4.93;;;2.63;;
37907;SDS011;23740;51.550;6.846;2023-07-16T06:28:33;3.63;;;2.05;;
37907;SDS011;23740;51.550;6.846;2023-07-16T06:31:00;4.68;;;1.90;;
37907;SDS011;23740;51.550;6.846;2023-07-16T06:33:28;6.25;;;2.35;;
37907;SDS011;23740;51.550;6.846;2023-07-16T06:35:56;4.32;;;2.28;;
37907;SDS011;23740;51.550;6.846;2023-07-16T06:38:24;5.35;;;2.70;;
37907;SDS011;23740;51.550;6.846;2023-07-16T06:40:56;5.20;;;2.33;;
37907;SDS011;23740;51.550;6.846;2023-07-16T06:43:24;4.75;;;2.38;;
37907;SDS011;23740;51.550;6.846;2023-07-16T06:45:52;4.70;;;2.67;;
37907;SDS011;23740;51.550;6.846;2023-07-16T06:48:19;6.07;;;3.00;;
37907;SDS011;23740;51.550;6.846;2023-07-16T06:50:47;5.93;;;2.45;;
37907;SDS011;23740;51.550;6.846;2023-07-16T06:53:15;5.68;;;2.88;;
37907;SDS011;23740;51.550;6.846;2023-07-16T06:55:43;4.05;;;2.50;;
37907;SDS011;23740;51.550;6.846;2023-07-16T06:58:13;4.93;;;2.42;;
37907;SDS011;23740;51.550;6.846;2023-07-16T07:00:41;5.28;;;2.88;;
37907;SDS011;23740;51.550;6.846;2023-07-16T07:03:09;4.85;;;2.70;;
37907;SDS011;23740;51.550;6.846;2023-07-16T07:05:40;5.45;;;2.60;;
37907;SDS011;23740;51.550;6.846;2023-07-16T07:08:08;3.55;;;2.30;;
37907;SDS011;23740;51.550;6.846;2023-07-16T07:10:36;4.70;;;2.35;;
37907;SDS011;23740;51.550;6.846;2023-07-16T07:13:06;4.78;;;2.92;;
37907;SDS011;23740;51.550;6.846;2023-07-16T07:15:35;6.65;;;3.00;;
37907;SDS011;23740;51.550;6.846;2023-07-16T07:18:03;4.80;;;2.60;;
37907;SDS011;23740;51.550;6.846;2023-07-16T07:20:31;4.65;;;2.50;;
37907;SDS011;23740;51.550;6.846;2023-07-16T07:22:59;4.90;;;2.45;;
37907;SDS011;23740;51.550;6.846;2023-07-16T07:25:29;8.57;;;2.53;;
37907;SDS011;23740;51.550;6.846;2023-07-16T07:27:57;6.57;;;2.88;;
37907;SDS011;23740;51.550;6.846;2023-07-16T07:30:25;5.47;;;2.88;;
37907;SDS011;23740;51.550;6.846;2023-07-16T07:32:55;5.43;;;3.17;;
37907;SDS011;23740;51.550;6.846;2023-07-16T07:35:22;4.55;;;2.55;;
37907;SDS011;23740;51.550;6.846;2023-07-16T07:37:50;4.57;;;2.35;;
37907;SDS011;23740;51.550;6.846;2023-07-16T07:40:18;3.40;;;2.42;;
37907;SDS011;23740;51.550;6.846;2023-07-16T07:42:46;3.63;;;2.95;;
37907;SDS011;23740;51.550;6.846;2023-07-16T07:45:14;5.75;;;2.88;;
37907;SDS011;23740;51.550;6.846;2023-07-16T07:47:42;3.92;;;2.58;;
37907;SDS011;23740;51.550;6.846;2023-07-16T07:50:11;6.03;;;2.97;;
37907;SDS011;23740;51.550;6.846;2023-07-16T07:52:39;5.50;;;4.10;;
37907;SDS011;23740;51.550;6.846;2023-07-16T07:55:07;4.15;;;3.75;;
37907;SDS011;23740;51.550;6.846;2023-07-16T07:57:35;3.85;;;3.22;;
37907;SDS011;23740;51.550;6.846;2023-07-16T08:00:03;4.03;;;3.63;;
37907;SDS011;23740;51.550;6.846;2023-07-16T08:02:31;3.97;;;3.60;;
37907;SDS011;23740;51.550;6.846;2023-07-16T08:04:59;5.10;;;3.47;;
37907;SDS011;23740;51.550;6.846;2023-07-16T08:07:32;7.40;;;4.40;;
37907;SDS011;23740;51.550;6.846;2023-07-16T08:09:59;5.95;;;3.65;;
37907;SDS011;23740;51.550;6.846;2023-07-16T08:12:27;3.85;;;3.28;;
37907;SDS011;23740;51.550;6.846;2023-07-16T08:14:57;5.45;;;3.33;;
37907;SDS011;23740;51.550;6.846;2023-07-16T08:17:25;3.67;;;3.38;;
37907;SDS011;23740;51.550;6.846;2023-07-16T08:19:53;4.97;;;3.47;;
37907;SDS011;23740;51.550;6.846;2023-07-16T08:22:21;3.70;;;3.40;;
37907;SDS011;23740;51.550;6.846;2023-07-16T08:24:52;3.90;;;3.50;;
37907;SDS011;23740;51.550;6.846;2023-07-16T08:27:19;4.53;;;3.50;;
37907;SDS011;23740;51.550;6.846;2023-07-16T08:29:47;5.95;;;4.88;;
37907;SDS011;23740;51.550;6.846;2023-07-16T08:32:15;5.25;;;3.35;;
37907;SDS011;23740;51.550;6.846;2023-07-16T08:34:43;5.07;;;4.65;;
37907;SDS011;23740;51.550;6.846;2023-07-16T08:37:10;5.00;;;4.22;;
37907;SDS011;23740;51.550;6.846;2023-07-16T08:39:38;5.05;;;3.35;;
37907;SDS011;23740;51.550;6.846;2023-07-16T08:42:08;5.18;;;3.22;;
37907;SDS011;23740;51.550;6.846;2023-07-16T08:44:37;4.18;;;3.40;;
37907;SDS011;23740;51.550;6.846;2023-07-16T08:47:05;4.05;;;2.85;;
37907;SDS011;23740;51.550;6.846;2023-07-16T08:49:33;4.68;;;3.25;;
37907;SDS011;23740;51.550;6.846;2023-07-16T08:52:02;6.05;;;3.00;;
37907;SDS011;23740;51.550;6.846;2023-07-16T08:54:30;3.88;;;3.28;;
37907;SDS011;23740;51.550;6.846;2023-07-16T08:56:57;5.05;;;3.97;;
37907;SDS011;23740;51.550;6.846;2023-07-16T08:59:27;4.30;;;3.47;;
37907;SDS011;23740;51.550;6.846;2023-07-16T09:01:55;3.63;;;3.28;;
37907;SDS011;23740;51.550;6.846;2023-07-16T09:04:24;5.20;;;3.63;;
37907;SDS011;23740;51.550;6.846;2023-07-16T09:06:52;6.50;;;3.05;;
37907;SDS011;23740;51.550;6.846;2023-07-16T09:09:20;3.72;;;3.42;;
37907;SDS011;23740;51.550;6.846;2023-07-16T09:11:49;6.57;;;2.42;;
37907;SDS011;23740;51.550;6.846;2023-07-16T09:14:17;4.38;;;2.85;;
37907;SDS011;23740;51.550;6.846;2023-07-16T09:16:49;3.78;;;2.67;;
37907;SDS011;23740;51.550;6.846;2023-07-16T09:19:17;3.75;;;2.90;;
37907;SDS011;23740;51.550;6.846;2023-07-16T09:21:48;6.63;;;3.30;;
37907;SDS011;23740;51.550;6.846;2023-07-16T09:24:16;4.47;;;2.80;;
37907;SDS011;23740;51.550;6.846;2023-07-16T09:26:47;4.00;;;2.33;;
37907;SDS011;23740;51.550;6.846;2023-07-16T09:29:16;4.38;;;2.88;;
37907;SDS011;23740;51.550;6.846;2023-07-16T09:31:55;4.47;;;3.03;;
37907;SDS011;23740;51.550;6.846;2023-07-16T09:34:26;4.05;;;2.72;;
37907;SDS011;23740;51.550;6.846;2023-07-16T09:36:55;3.45;;;2.47;;
37907;SDS011;23740;51.550;6.846;2023-07-16T09:39:23;6.05;;;2.70;;
37907;SDS011;23740;51.550;6.846;2023-07-16T09:41:53;5.88;;;2.95;;
37907;SDS011;23740;51.550;6.846;2023-07-16T09:44:22;3.78;;;2.65;;
37907;SDS011;23740;51.550;6.846;2023-07-16T09:46:50;4.95;;;3.15;;
37907;SDS011;23740;51.550;6.846;2023-07-16T09:49:19;2.95;;;2.60;;
37907;SDS011;23740;51.550;6.846;2023-07-16T09:51:47;4.18;;;2.53;;
37907;SDS011;23740;51.550;6.846;2023-07-16T09:54:16;4.28;;;2.70;;
37907;SDS011;23740;51.550;6.846;2023-07-16T09:56:45;3.33;;;2.38;;
37907;SDS011;23740;51.550;6.846;2023-07-16T09:59:15;4.38;;;2.65;;
37907;SDS011;23740;51.550;6.846;2023-07-16T10:01:44;8.15;;;2.45;;
37907;SDS011;23740;51.550;6.846;2023-07-16T10:04:12;5.82;;;3.40;;
37907;SDS011;23740;51.550;6.846;2023-07-16T10:06:49;4.13;;;2.40;;
37907;SDS011;23740;51.550;6.846;2023-07-16T10:09:37;5.68;;;3.05;;
37907;SDS011;23740;51.550;6.846;2023-07-16T10:12:13;6.28;;;2.55;;
37907;SDS011;23740;51.550;6.846;2023-07-16T10:14:42;4.32;;;2.55;;
37907;SDS011;23740;51.550;6.846;2023-07-16T10:17:13;4.63;;;2.65;;
37907;SDS011;23740;51.550;6.846;2023-07-16T10:19:49;3.42;;;2.78;;
37907;SDS011;23740;51.550;6.846;2023-07-16T10:22:19;4.07;;;2.60;;
37907;SDS011;23740;51.550;6.846;2023-07-16T10:24:53;2.90;;;2.10;;
37907;SDS011;23740;51.550;6.846;2023-07-16T10:27:27;2.25;;;2.05;;
37907;SDS011;23740;51.550;6.846;2023-07-16T10:29:55;4.20;;;2.42;;
37907;SDS011;23740;51.550;6.846;2023-07-16T10:32:25;3.65;;;2.80;;
37907;SDS011;23740;51.550;6.846;2023-07-16T10:34:54;2.90;;;2.58;;
37907;SDS011;23740;51.550;6.846;2023-07-16T10:37:24;3.78;;;2.20;;
37907;SDS011;23740;51.550;6.846;2023-07-16T10:39:52;5.72;;;2.05;;
37907;SDS011;23740;51.550;6.846;2023-07-16T10:42:22;4.57;;;2.80;;
37907;SDS011;23740;51.550;6.846;2023-07-16T10:44:50;4.13;;;2.33;;
37907;SDS011;23740;51.550;6.846;2023-07-16T10:47:20;3.53;;;2.40;;
37907;SDS011;23740;51.550;6.846;2023-07-16T10:49:51;4.43;;;2.70;;
37907;SDS011;23740;51.550;6.846;2023-07-16T10:52:20;2.58;;;2.28;;
37907;SDS011;23740;51.550;6.846;2023-07-16T10:54:50;4.38;;;2.65;;
37907;SDS011;23740;51.550;6.846;2023-07-16T10:57:21;3.70;;;2.90;;
37907;SDS011;23740;51.550;6.846;2023-07-16T10:59:50;3.75;;;2.60;;
37907;SDS011;23740;51.550;6.846;2023-07-16T11:02:18;4.75;;;2.97;;
37907;SDS011;23740;51.550;6.846;2023-07-16T11:04:48;3.55;;;2.63;;
37907;SDS011;23740;51.550;6.846;2023-07-16T11:07:19;4.07;;;2.40;;
37907;SDS011;23740;51.550;6.846;2023-07-16T11:09:50;3.25;;;2.28;;
37907;SDS011;23740;51.550;6.846;2023-07-16T11:12:20;3.60;;;2.03;;
37907;SDS011;23740;51.550;6.846;2023-07-16T11:14:50;4.75;;;2.42;;
37907;SDS011;23740;51.550;6.846;2023-07-16T11:17:19;4.28;;;2.55;;
37907;SDS011;23740;51.550;6.846;2023-07-16T11:19:48;3.70;;;2.60;;
37907;SDS011;23740;51.550;6.846;2023-07-16T11:22:16;4.53;;;2.80;;
37907;SDS011;23740;51.550;6.846;2023-07-16T11:24:44;4.55;;;2.60;;
37907;SDS011;23740;51.550;6.846;2023-07-16T11:27:15;4.68;;;2.80;;
37907;SDS011;23740;51.550;6.846;2023-07-16T11:29:47;3.30;;;2.70;;
37907;SDS011;23740;51.550;6.846;2023-07-16T11:32:25;4.03;;;2.55;;
37907;SDS011;23740;51.550;6.846;2023-07-16T11:34:57;4.80;;;2.45;;
37907;SDS011;23740;51.550;6.846;2023-07-16T11:37:25;4.45;;;2.10;;
37907;SDS011;23740;51.550;6.846;2023-07-16T11:39:57;3.20;;;2.53;;
37907;SDS011;23740;51.550;6.846;2023-07-16T11:42:29;4.22;;;3.05;;
37907;SDS011;23740;51.550;6.846;2023-07-16T11:44:57;3.72;;;2.97;;
37907;SDS011;23740;51.550;6.846;2023-07-16T11:47:26;3.92;;;3.13;;
37907;SDS011;23740;51.550;6.846;2023-07-16T11:49:54;4.03;;;2.92;;
37907;SDS011;23740;51.550;6.846;2023-07-16T11:52:23;4.15;;;2.40;;
37907;SDS011;23740;51.550;6.846;2023-07-16T11:54:51;4.88;;;2.97;;
37907;SDS011;23740;51.550;6.846;2023-07-16T11:57:19;4.45;;;2.78;;
37907;SDS011;23740;51.550;6.846;2023-07-16T11:59:49;6.82;;;3.42;;
37907;SDS011;23740;51.550;6.846;2023-07-16T12:02:16;4.40;;;3.25;;
37907;SDS011;23740;51.550;6.846;2023-07-16T12:04:44;4.78;;;2.50;;
37907;SDS011;23740;51.550;6.846;2023-07-16T12:07:12;4.13;;;2.15;;
37907;SDS011;23740;51.550;6.846;2023-07-16T12:09:40;5.38;;;3.83;;
37907;SDS011;23740;51.550;6.846;2023-07-16T12:12:08;3.10;;;2.80;;
37907;SDS011;23740;51.550;6.846;2023-07-16T12:14:36;4.55;;;2.38;;
37907;SDS011;23740;51.550;6.846;2023-07-16T12:17:05;3.35;;;2.65;;
37907;SDS011;23740;51.550;6.846;2023-07-16T12:19:33;4.30;;;2.55;;
37907;SDS011;23740;51.550;6.846;2023-07-16T12:22:01;3.00;;;2.15;;
37907;SDS011;23740;51.550;6.846;2023-07-16T12:24:29;3.22;;;2.33;;
37907;SDS011;23740;51.550;6.846;2023-07-16T12:26:57;3.30;;;2.35;;
37907;SDS011;23740;51.550;6.846;2023-07-16T12:29:25;3.97;;;2.03;;
37907;SDS011;23740;51.550;6.846;2023-07-16T12:31:52;2.95;;;2.08;;
37907;SDS011;23740;51.550;6.846;2023-07-16T12:34:22;3.90;;;2.33;;
37907;SDS011;23740;51.550;6.846;2023-07-16T12:36:49;4.88;;;2.88;;
37907;SDS011;23740;51.550;6.846;2023-07-16T12:39:17;5.53;;;2.33;;
37907;SDS011;23740;51.550;6.846;2023-07-16T12:41:45;3.38;;;2.47;;
37907;SDS011;23740;51.550;6.846;2023-07-16T12:44:13;4.60;;;2.10;;
37907;SDS011;23740;51.550;6.846;2023-07-16T12:46:41;2.95;;;2.15;;
37907;SDS011;23740;51.550;6.846;2023-07-16T12:49:09;9.05;;;4.72;;
37907;SDS011;23740;51.550;6.846;2023-07-16T12:51:38;3.33;;;2.58;;
37907;SDS011;23740;51.550;6.846;2023-07-16T12:54:05;4.15;;;3.15;;
37907;SDS011;23740;51.550;6.846;2023-07-16T12:56:39;2.92;;;2.15;;
37907;SDS011;23740;51.550;6.846;2023-07-16T12:59:10;3.53;;;2.30;;
37907;SDS011;23740;51.550;6.846;2023-07-16T13:01:38;3.65;;;2.13;;
37907;SDS011;23740;51.550;6.846;2023-07-16T13:04:06;2.70;;;1.83;;
37907;SDS011;23740;51.550;6.846;2023-07-16T13:06:34;3.60;;;2.03;;
37907;SDS011;23740;51.550;6.846;2023-07-16T13:09:03;3.40;;;2.60;;
37907;SDS011;23740;51.550;6.846;2023-07-16T13:11:31;3.50;;;2.25;;
37907;SDS011;23740;51.550;6.846;2023-07-16T13:13:59;2.55;;;1.90;;
37907;SDS011;23740;51.550;6.846;2023-07-16T13:16:27;2.65;;;2.05;;
37907;SDS011;23740;51.550;6.846;2023-07-16T13:18:55;3.47;;;2.40;;
37907;SDS011;23740;51.550;6.846;2023-07-16T13:21:23;3.50;;;1.83;;
37907;SDS011;23740;51.550;6.846;2023-07-16T13:23:51;2.47;;;1.90;;
37907;SDS011;23740;51.550;6.846;2023-07-16T13:26:20;4.45;;;2.45;;
37907;SDS011;23740;51.550;6.846;2023-07-16T13:28:47;3.17;;;1.95;;
37907;SDS011;23740;51.550;6.846;2023-07-16T13:31:16;2.92;;;2.22;;
37907;SDS011;23740;51.550;6.846;2023-07-16T13:33:44;2.72;;;2.15;;
37907;SDS011;23740;51.550;6.846;2023-07-16T13:36:11;3.10;;;2.40;;
37907;SDS011;23740;51.550;6.846;2023-07-16T13:38:40;3.00;;;2.08;;
37907;SDS011;23740;51.550;6.846;2023-07-16T13:41:07;3.40;;;2.53;;
37907;SDS011;23740;51.550;6.846;2023-07-16T13:43:37;1.92;;;1.63;;
37907;SDS011;23740;51.550;6.846;2023-07-16T13:46:05;2.55;;;1.73;;
37907;SDS011;23740;51.550;6.846;2023-07-16T13:48:33;2.15;;;1.85;;
37907;SDS011;23740;51.550;6.846;2023-07-16T13:51:20;2.92;;;2.55;;
37907;SDS011;23740;51.550;6.846;2023-07-16T13:53:48;2.35;;;2.13;;
37907;SDS011;23740;51.550;6.846;2023-07-16T13:56:16;3.15;;;2.28;;
37907;SDS011;23740;51.550;6.846;2023-07-16T13:58:46;4.55;;;2.83;;
37907;SDS011;23740;51.550;6.846;2023-07-16T14:01:14;3.38;;;2.10;;
37907;SDS011;23740;51.550;6.846;2023-07-16T14:03:43;3.55;;;2.22;;
37907;SDS011;23740;51.550;6.846;2023-07-16T14:06:11;2.75;;;2.03;;
37907;SDS011;23740;51.550;6.846;2023-07-16T14:08:39;2.20;;;1.73;;
37907;SDS011;23740;51.550;6.846;2023-07-16T14:11:07;2.13;;;1.92;;
37907;SDS011;23740;51.550;6.846;2023-07-16T14:13:34;2.90;;;2.05;;
37907;SDS011;23740;51.550;6.846;2023-07-16T14:16:04;4.35;;;2.33;;
37907;SDS011;23740;51.550;6.846;2023-07-16T14:18:31;2.47;;;2.17;;
37907;SDS011;23740;51.550;6.846;2023-07-16T14:20:59;3.25;;;2.22;;
37907;SDS011;23740;51.550;6.846;2023-07-16T14:23:29;3.60;;;2.60;;
37907;SDS011;23740;51.550;6.846;2023-07-16T14:25:57;2.72;;;2.22;;
37907;SDS011;23740;51.550;6.846;2023-07-16T14:28:24;2.38;;;2.05;;
37907;SDS011;23740;51.550;6.846;2023-07-16T14:30:52;2.47;;;1.75;;
37907;SDS011;23740;51.550;6.846;2023-07-16T14:33:21;1.73;;;1.63;;
37907;SDS011;23740;51.550;6.846;2023-07-16T14:35:49;2.05;;;1.77;;
37907;SDS011;23740;51.550;6.846;2023-07-16T14:38:17;3.17;;;1.88;;
37907;SDS011;23740;51.550;6.846;2023-07-16T14:40:45;3.08;;;1.65;;
37907;SDS011;23740;51.550;6.846;2023-07-16T14:43:14;2.45;;;2.25;;
37907;SDS011;23740;51.550;6.846;2023-07-16T14:45:42;2.83;;;1.65;;
37907;SDS011;23740;51.550;6.846;2023-07-16T14:48:10;2.90;;;1.75;;
37907;SDS011;23740;51.550;6.846;2023-07-16T14:50:39;4.00;;;2.03;;
37907;SDS011;23740;51.550;6.846;2023-07-16T14:53:07;2.03;;;1.60;;
37907;SDS011;23740;51.550;6.846;2023-07-16T14:55:35;2.20;;;1.90;;
37907;SDS011;23740;51.550;6.846;2023-07-16T14:58:03;2.53;;;1.83;;